createdAt,value
2022-10-01T00:01:04.111Z,81.68
2022-10-01T00:03:40.058Z,81.65
2022-10-01T00:06:10.769Z,81.80
2022-10-01T00:08:40.047Z,79.57
2022-10-01T00:11:11.225Z,76.77
2022-10-01T00:13:39.384Z,76.25
2022-10-01T00:16:08.043Z,75.60
2022-10-01T00:18:36.610Z,77.92
2022-10-01T00:21:08.711Z,79.25
2022-10-01T00:23:36.618Z,79.68
2022-10-01T00:26:14.180Z,80.18
2022-10-01T00:28:42.769Z,77.06
2022-10-01T00:31:10.613Z,73.48
2022-10-01T00:33:38.382Z,74.20
2022-10-01T00:36:08.053Z,72.68
2022-10-01T00:38:35.629Z,72.27
2022-10-01T00:41:03.988Z,71.91
2022-10-01T00:43:35.296Z,74.07
2022-10-01T00:46:06.852Z,70.49
2022-10-01T00:48:40.110Z,68.86
2022-10-01T00:51:07.582Z,69.04
2022-10-01T00:53:35.105Z,69.35
2022-10-01T00:56:02.788Z,69.30
2022-10-01T00:58:30.055Z,70.19
2022-10-01T01:00:58.855Z,70.56
2022-10-01T01:03:26.965Z,69.99
2022-10-01T01:05:54.350Z,70.19
2022-10-01T01:08:21.596Z,75.53
2022-10-01T01:10:57.890Z,76.62
2022-10-01T01:13:33.131Z,77.06
2022-10-01T01:16:09.976Z,79.14
2022-10-01T01:18:45.322Z,79.94
2022-10-01T01:21:21.615Z,80.48
2022-10-01T01:24:15.685Z,78.38
2022-10-01T01:26:55.269Z,78.79
2022-10-01T01:29:29.434Z,80.12
2022-10-01T01:32:02.920Z,80.57
2022-10-01T01:34:33.401Z,79.29
2022-10-01T01:37:06.405Z,79.29
2022-10-01T01:39:35.087Z,79.87
2022-10-01T01:42:07.128Z,81.13
2022-10-01T01:44:39.782Z,80.63
2022-10-01T01:47:09.205Z,80.02
2022-10-01T01:49:37.491Z,79.38
2022-10-01T01:52:08.807Z,78.87
2022-10-01T01:54:36.959Z,78.46
2022-10-01T01:57:04.645Z,78.32
2022-10-01T01:59:33.209Z,77.40
2022-10-01T02:02:02.504Z,78.34
2022-10-01T02:04:34.553Z,80.24
2022-10-01T02:07:32.565Z,81.61
2022-10-01T02:10:11.570Z,82.15
2022-10-01T02:12:51.528Z,83.37
2022-10-01T02:15:25.758Z,83.69
2022-10-01T02:18:03.604Z,83.20
2022-10-01T02:20:36.820Z,82.03
2022-10-01T02:23:08.074Z,81.88
2022-10-01T02:25:40.059Z,83.04
2022-10-01T02:28:12.016Z,82.87
2022-10-01T02:30:41.167Z,83.87
2022-10-01T02:33:13.853Z,83.71
2022-10-01T02:35:44.262Z,83.45
2022-10-01T02:38:15.644Z,83.46
2022-10-01T02:40:45.054Z,84.32
2022-10-01T02:43:18.653Z,82.76
2022-10-01T02:45:50.707Z,82.12
2022-10-01T02:48:19.772Z,82.52
2022-10-01T02:50:51.528Z,80.73
2022-10-01T02:53:26.247Z,80.07
2022-10-01T02:55:55.342Z,77.77
2022-10-01T02:58:23.538Z,77.98
2022-10-01T03:00:50.847Z,78.72
2022-10-01T03:03:19.656Z,78.51
2022-10-01T03:05:47.632Z,79.12
2022-10-01T03:08:14.867Z,78.37
2022-10-01T03:10:46.015Z,76.78
2022-10-01T03:13:14.611Z,77.96
2022-10-01T03:15:41.944Z,76.56
2022-10-01T03:18:09.252Z,79.09
2022-10-01T03:20:38.335Z,78.86
2022-10-01T03:23:05.607Z,77.07
2022-10-01T03:25:32.846Z,73.46
2022-10-01T03:28:00.897Z,72.33
2022-10-01T03:30:28.289Z,72.23
2022-10-01T03:32:55.524Z,71.72
2022-10-01T03:35:23.107Z,72.16
2022-10-01T03:37:51.791Z,73.49
2022-10-01T03:40:18.927Z,73.65
2022-10-01T03:42:46.689Z,74.03
2022-10-01T03:45:14.166Z,74.51
2022-10-01T03:47:41.488Z,75.95
2022-10-01T03:50:09.605Z,74.77
2022-10-01T03:52:36.853Z,73.29
2022-10-01T03:55:06.530Z,73.62
2022-10-01T03:57:34.450Z,73.41
2022-10-01T04:00:02.029Z,74.13
2022-10-01T04:02:29.427Z,75.93
2022-10-01T04:04:57.113Z,75.32
2022-10-01T04:07:24.295Z,77.36
2022-10-01T04:09:51.492Z,77.43
2022-10-01T04:12:20.510Z,78.01
2022-10-01T04:14:47.732Z,77.31
2022-10-01T04:17:15.094Z,78.21
2022-10-01T04:19:42.565Z,76.08
2022-10-01T04:22:09.802Z,78.98
2022-10-01T04:24:37.183Z,80.30
2022-10-01T04:27:05.012Z,80.12
2022-10-01T04:29:38.027Z,79.78
2022-10-01T04:32:07.879Z,79.37
2022-10-01T04:34:35.409Z,79.80
2022-10-01T04:37:02.585Z,77.18
2022-10-01T04:39:30.446Z,75.73
2022-10-01T04:41:57.723Z,74.98
2022-10-01T04:44:24.875Z,74.34
2022-10-01T04:46:53.956Z,75.98
2022-10-01T04:49:21.353Z,77.36
2022-10-01T04:51:49.043Z,76.66
2022-10-01T04:54:16.267Z,76.34
2022-10-01T04:56:43.455Z,75.47
2022-10-01T04:59:11.113Z,75.09
2022-10-01T05:01:39.057Z,75.34
2022-10-01T05:04:08.236Z,73.92
2022-10-01T05:06:35.854Z,74.29
2022-10-01T05:09:03.524Z,78.81
2022-10-01T05:11:31.064Z,79.53
2022-10-01T05:13:59.088Z,79.49
2022-10-01T05:16:27.471Z,79.05
2022-10-01T05:18:54.747Z,76.89
2022-10-01T05:21:23.653Z,76.85
2022-10-01T05:23:53.940Z,78.19
2022-10-01T05:26:21.629Z,79.00
2022-10-01T05:28:49.407Z,77.61
2022-10-01T05:31:19.091Z,78.16
2022-10-01T05:33:46.774Z,81.50
2022-10-01T05:36:14.356Z,83.26
2022-10-01T05:38:43.170Z,83.22
2022-10-01T05:41:10.438Z,84.21
2022-10-01T05:43:37.995Z,84.35
2022-10-01T05:46:05.863Z,84.32
2022-10-01T05:48:33.283Z,84.01
2022-10-01T05:51:01.296Z,83.75
2022-10-01T05:53:28.526Z,83.41
2022-10-01T05:55:59.053Z,82.37
2022-10-01T05:58:27.083Z,81.67
2022-10-01T06:00:55.457Z,80.76
2022-10-01T06:03:22.819Z,79.96
2022-10-01T06:05:50.994Z,79.28
2022-10-01T06:08:18.344Z,79.20
2022-10-01T06:10:45.618Z,79.75
2022-10-01T06:13:14.788Z,78.92
2022-10-01T06:15:42.062Z,78.73
2022-10-01T06:18:11.595Z,78.46
2022-10-01T06:20:40.814Z,78.31
2022-10-01T06:23:12.900Z,78.71
2022-10-01T06:25:41.781Z,79.05
2022-10-01T06:28:11.402Z,79.94
2022-10-01T06:30:40.428Z,80.31
2022-10-01T06:33:11.019Z,80.08
2022-10-01T06:35:41.859Z,80.03
2022-10-01T06:38:09.936Z,79.03
2022-10-01T06:40:37.862Z,80.06
2022-10-01T06:43:05.810Z,80.37
2022-10-01T06:45:37.050Z,81.77
2022-10-01T06:48:06.320Z,82.84
2022-10-01T06:50:34.970Z,82.06
2022-10-01T06:53:02.583Z,82.29
2022-10-01T06:55:32.485Z,82.62
2022-10-01T06:58:01.542Z,82.03
2022-10-01T07:00:30.810Z,80.80
2022-10-01T07:02:58.749Z,79.68
2022-10-01T07:05:29.705Z,80.38
2022-10-01T07:07:57.008Z,78.71
2022-10-01T07:10:24.467Z,76.92
2022-10-01T07:12:52.272Z,77.78
2022-10-01T07:15:21.411Z,75.39
2022-10-01T07:17:50.402Z,75.05
2022-10-01T07:20:20.124Z,75.66
2022-10-01T07:22:50.171Z,75.49
2022-10-01T07:25:17.586Z,74.03
2022-10-01T07:27:45.253Z,72.28
2022-10-01T07:30:12.784Z,70.00
2022-10-01T07:32:43.150Z,71.79
2022-10-01T07:35:10.957Z,71.08
2022-10-01T07:37:38.148Z,71.53
2022-10-01T07:40:08.365Z,70.94
2022-10-01T07:42:36.075Z,70.37
2022-10-01T07:45:03.537Z,71.41
2022-10-01T07:47:34.078Z,69.00
2022-10-01T07:50:02.018Z,68.82
2022-10-01T07:52:29.640Z,70.33
2022-10-01T07:54:57.661Z,72.02
2022-10-01T07:57:27.682Z,69.45
2022-10-01T07:59:56.166Z,68.66
2022-10-01T08:02:23.621Z,69.40
2022-10-01T08:04:58.082Z,67.64
2022-10-01T08:07:25.383Z,68.41
2022-10-01T08:10:03.606Z,68.51
2022-10-01T08:12:46.748Z,67.75
2022-10-01T08:15:19.405Z,68.13
2022-10-01T08:17:46.927Z,68.25
2022-10-01T08:20:27.042Z,66.44
2022-10-01T08:23:13.003Z,68.39
2022-10-01T08:25:44.529Z,66.03
2022-10-01T08:28:14.327Z,66.48
2022-10-01T08:30:59.186Z,67.18
2022-10-01T08:33:45.467Z,65.32
2022-10-01T08:36:15.367Z,64.46
2022-10-01T08:38:45.711Z,64.76
2022-10-01T08:41:33.435Z,66.27
2022-10-01T08:44:18.873Z,66.84
2022-10-01T08:46:47.750Z,67.56
2022-10-01T08:49:21.200Z,64.62
2022-10-01T08:51:54.530Z,62.06
2022-10-01T08:54:30.957Z,65.77
2022-10-01T08:57:01.305Z,64.45
2022-10-01T08:59:38.441Z,62.75
2022-10-01T09:02:19.444Z,63.00
2022-10-01T09:04:49.179Z,59.88
2022-10-01T09:07:30.511Z,63.09
2022-10-01T09:10:16.729Z,62.33
2022-10-01T09:12:58.906Z,64.34
2022-10-01T09:15:34.379Z,62.17
2022-10-01T09:18:14.939Z,61.83
2022-10-01T09:20:47.755Z,61.07
2022-10-01T09:23:22.589Z,60.99
2022-10-01T09:25:50.842Z,63.07
2022-10-01T09:28:21.633Z,63.89
2022-10-01T09:30:56.787Z,64.82
2022-10-01T09:33:29.768Z,64.48
2022-10-01T09:36:05.880Z,64.15
2022-10-01T09:38:38.840Z,65.50
2022-10-01T09:41:08.497Z,63.26
2022-10-01T09:43:39.808Z,63.65
2022-10-01T09:46:12.374Z,63.79
2022-10-01T09:48:48.002Z,62.38
2022-10-01T09:51:19.304Z,63.25
2022-10-01T09:53:54.980Z,60.96
2022-10-01T09:56:28.851Z,61.40
2022-10-01T09:59:01.755Z,63.38
2022-10-01T10:01:42.157Z,63.12
2022-10-01T10:04:10.374Z,63.75
2022-10-01T10:06:38.921Z,61.62
2022-10-01T10:09:16.457Z,62.41
2022-10-01T10:11:45.221Z,61.35
2022-10-01T10:14:17.676Z,61.50
2022-10-01T10:16:48.877Z,61.21
2022-10-01T10:19:21.713Z,61.03
2022-10-01T10:21:51.556Z,60.60
2022-10-01T10:24:25.719Z,59.89
2022-10-01T10:26:59.091Z,58.76
2022-10-01T10:29:28.444Z,58.90
2022-10-01T10:31:59.040Z,56.81
2022-10-01T10:34:32.956Z,57.92
2022-10-01T10:37:03.411Z,57.77
2022-10-01T10:39:35.058Z,55.94
2022-10-01T10:42:03.107Z,57.15
2022-10-01T10:44:33.071Z,54.79
2022-10-01T10:47:05.271Z,54.03
2022-10-01T10:49:38.600Z,56.00
2022-10-01T10:52:19.560Z,55.54
2022-10-01T10:54:48.928Z,55.08
2022-10-01T10:57:20.179Z,52.81
2022-10-01T10:59:56.484Z,52.37
2022-10-01T11:02:27.024Z,52.95
2022-10-01T11:04:55.614Z,54.06
2022-10-01T11:07:24.911Z,54.10
2022-10-01T11:10:08.386Z,55.99
2022-10-01T11:12:49.360Z,55.15
2022-10-01T11:15:35.893Z,54.38
2022-10-01T11:18:25.564Z,55.84
2022-10-01T11:21:04.777Z,57.85
2022-10-01T11:23:47.868Z,58.77
2022-10-01T11:26:24.287Z,60.45
2022-10-01T11:29:05.961Z,59.26
2022-10-01T11:31:39.290Z,58.16
2022-10-01T11:34:37.294Z,57.61
2022-10-01T11:37:11.773Z,57.28
2022-10-01T11:39:42.144Z,56.31
2022-10-01T11:42:13.428Z,55.91
2022-10-01T11:44:45.374Z,58.89
2022-10-01T11:47:17.333Z,57.90
2022-10-01T11:49:54.254Z,58.86
2022-10-01T11:52:31.902Z,58.70
2022-10-01T11:55:07.001Z,59.50
2022-10-01T11:57:34.362Z,58.30
2022-10-01T12:00:07.722Z,57.98
2022-10-01T12:02:46.134Z,57.62
2022-10-01T12:05:19.268Z,57.48
2022-10-01T12:07:53.570Z,58.20
2022-10-01T12:10:35.182Z,56.81
2022-10-01T12:13:08.942Z,57.35
2022-10-01T12:15:43.710Z,56.68
2022-10-01T12:18:18.502Z,57.83
2022-10-01T12:20:50.638Z,60.26
2022-10-01T12:23:22.154Z,60.07
2022-10-01T12:26:01.017Z,58.85
2022-10-01T12:28:33.751Z,58.74
2022-10-01T12:31:08.433Z,58.21
2022-10-01T12:34:00.567Z,59.26
2022-10-01T12:36:40.598Z,59.87
2022-10-01T12:39:24.338Z,59.86
2022-10-01T12:42:05.590Z,59.50
2022-10-01T12:44:56.264Z,58.88
2022-10-01T12:47:35.997Z,58.29
2022-10-01T12:50:17.595Z,58.52
2022-10-01T12:52:57.988Z,56.78
2022-10-01T12:55:45.649Z,57.85
2022-10-01T12:58:24.761Z,58.02
2022-10-01T13:01:00.453Z,57.06
2022-10-01T13:03:49.107Z,57.42
2022-10-01T13:06:32.942Z,58.08
2022-10-01T13:09:15.369Z,58.11
2022-10-01T13:12:16.772Z,57.54
2022-10-01T13:14:46.345Z,58.25
2022-10-01T13:17:21.537Z,57.62
2022-10-01T13:19:58.534Z,57.72
2022-10-01T13:22:35.211Z,58.21
2022-10-01T13:25:21.785Z,59.56
2022-10-01T13:27:58.990Z,58.05
2022-10-01T13:30:33.401Z,59.03
2022-10-01T13:33:01.351Z,57.72
2022-10-01T13:35:35.738Z,58.90
2022-10-01T13:38:15.120Z,58.10
2022-10-01T13:40:45.178Z,58.25
2022-10-01T13:43:18.286Z,59.38
2022-10-01T13:45:47.303Z,59.17
2022-10-01T13:48:19.397Z,59.89
2022-10-01T13:50:57.273Z,60.62
2022-10-01T13:53:26.327Z,60.41
2022-10-01T13:55:56.240Z,59.89
2022-10-01T13:58:32.090Z,60.80
2022-10-01T14:01:02.333Z,60.38
2022-10-01T14:03:42.308Z,58.83
2022-10-01T14:06:17.499Z,58.77
2022-10-01T14:08:51.108Z,59.63
2022-10-01T14:11:25.028Z,59.77
2022-10-01T14:13:53.133Z,59.65
2022-10-01T14:16:21.059Z,58.55
2022-10-01T14:18:50.014Z,58.55
2022-10-01T14:21:35.272Z,59.04
2022-10-01T14:24:16.826Z,60.03
2022-10-01T14:26:52.050Z,60.68
2022-10-01T14:29:33.837Z,61.58
2022-10-01T14:32:12.545Z,64.96
2022-10-01T14:34:52.784Z,65.94
2022-10-01T14:37:21.076Z,66.77
2022-10-01T14:40:01.577Z,68.47
2022-10-01T14:42:30.301Z,69.27
2022-10-01T14:44:57.792Z,71.09
2022-10-01T14:47:26.315Z,69.53
2022-10-01T14:49:54.868Z,72.24
2022-10-01T14:52:25.052Z,73.11
2022-10-01T14:54:59.453Z,72.87
2022-10-01T14:57:33.606Z,72.72
2022-10-01T15:00:04.552Z,73.01
2022-10-01T15:02:32.666Z,72.58
2022-10-01T15:05:00.185Z,72.77
2022-10-01T15:07:34.890Z,72.93
2022-10-01T15:10:06.965Z,72.64
2022-10-01T15:12:43.787Z,71.88
2022-10-01T15:15:22.481Z,71.36
2022-10-01T15:17:50.466Z,71.26
2022-10-01T15:20:18.522Z,70.92
2022-10-01T15:22:49.323Z,72.42
2022-10-01T15:25:21.798Z,71.93
2022-10-01T15:27:51.702Z,71.63
2022-10-01T15:30:19.154Z,72.81
2022-10-01T15:32:48.481Z,72.46
2022-10-01T15:35:22.014Z,71.52
2022-10-01T15:37:50.761Z,71.98
2022-10-01T15:40:27.921Z,72.65
2022-10-01T15:43:24.237Z,71.64
2022-10-01T15:46:17.476Z,72.28
2022-10-01T15:48:45.720Z,71.10
2022-10-01T15:51:19.918Z,71.58
2022-10-01T15:53:47.429Z,71.87
2022-10-01T15:56:20.785Z,71.81
2022-10-01T15:58:54.723Z,72.69
2022-10-01T16:01:25.330Z,72.20
2022-10-01T16:03:56.100Z,71.79
2022-10-01T16:06:27.469Z,72.15
2022-10-01T16:09:01.824Z,71.78
2022-10-01T16:11:30.511Z,70.99
2022-10-01T16:14:28.377Z,72.23
2022-10-01T16:17:26.219Z,71.89
2022-10-01T16:19:53.749Z,72.11
2022-10-01T16:22:25.280Z,72.45
2022-10-01T16:24:54.090Z,72.63
2022-10-01T16:27:23.686Z,72.66
2022-10-01T16:29:55.347Z,71.62
2022-10-01T16:32:23.194Z,72.21
2022-10-01T16:34:50.747Z,72.50
2022-10-01T16:37:18.671Z,73.32
2022-10-01T16:39:46.501Z,72.74
2022-10-01T16:42:24.256Z,72.20
2022-10-01T16:44:53.672Z,71.88
2022-10-01T16:47:20.945Z,71.65
2022-10-01T16:49:50.316Z,70.97
2022-10-01T16:52:18.270Z,70.72
2022-10-01T16:54:45.958Z,71.16
2022-10-01T16:57:13.535Z,70.65
2022-10-01T16:59:41.373Z,69.82
2022-10-01T17:02:12.742Z,70.02
2022-10-01T17:04:40.576Z,70.22
2022-10-01T17:07:08.275Z,70.13
2022-10-01T17:09:35.688Z,70.15
2022-10-01T17:12:03.105Z,71.13
2022-10-01T17:14:30.951Z,70.90
2022-10-01T17:16:58.416Z,71.35
2022-10-01T17:19:27.326Z,71.92
2022-10-01T17:21:55.193Z,71.67
2022-10-01T17:24:22.394Z,71.70
2022-10-01T17:26:49.737Z,71.20
2022-10-01T17:29:17.689Z,71.13
2022-10-01T17:31:45.094Z,71.16
2022-10-01T17:34:12.677Z,72.31
2022-10-01T17:36:41.895Z,72.12
2022-10-01T17:39:09.392Z,72.16
2022-10-01T17:41:36.726Z,72.24
2022-10-01T17:44:04.451Z,72.81
2022-10-01T17:46:31.970Z,72.98
2022-10-01T17:48:59.424Z,73.05
2022-10-01T17:51:27.224Z,73.14
2022-10-01T17:53:56.085Z,73.47
2022-10-01T17:56:23.426Z,73.32
2022-10-01T17:58:53.254Z,73.21
2022-10-01T18:01:22.524Z,72.06
2022-10-01T18:03:53.543Z,72.32
2022-10-01T18:06:21.373Z,72.95
2022-10-01T18:08:55.457Z,73.34
2022-10-01T18:11:26.756Z,73.25
2022-10-01T18:13:54.126Z,73.42
2022-10-01T18:16:22.193Z,73.81
2022-10-01T18:21:42.319Z,73.80
2022-10-01T18:24:09.910Z,73.61
2022-10-01T18:26:39.059Z,73.76
2022-10-01T18:29:06.748Z,73.44
2022-10-01T18:31:37.455Z,73.74
2022-10-01T18:34:15.440Z,74.40
2022-10-01T18:36:52.135Z,75.23
2022-10-01T18:39:28.116Z,74.81
2022-10-01T18:41:58.526Z,75.31
2022-10-01T18:44:26.215Z,74.99
2022-10-01T18:47:12.865Z,74.71
2022-10-01T18:50:07.443Z,74.55
2022-10-01T18:52:51.125Z,74.78
2022-10-01T18:55:58.319Z,74.73
2022-10-01T18:58:59.437Z,74.83
2022-10-01T19:01:36.269Z,74.25
2022-10-01T19:04:21.848Z,74.93
2022-10-01T19:07:02.072Z,75.32
2022-10-01T19:09:41.440Z,75.49
2022-10-01T19:12:29.380Z,75.19
2022-10-01T19:15:07.305Z,75.32
2022-10-01T19:17:47.895Z,75.42
2022-10-01T19:20:24.352Z,75.75
2022-10-01T19:23:08.849Z,75.77
2022-10-01T19:25:45.795Z,76.81
2022-10-01T19:28:31.803Z,76.35
2022-10-01T19:31:11.512Z,75.89
2022-10-01T19:33:44.999Z,76.17
2022-10-01T19:36:20.679Z,75.62
2022-10-01T19:38:50.282Z,75.65
2022-10-01T19:41:28.316Z,75.29
2022-10-01T19:44:02.204Z,74.93
2022-10-01T19:46:35.311Z,74.96
2022-10-01T19:49:12.121Z,75.11
2022-10-01T19:51:44.538Z,75.79
2022-10-01T19:54:16.172Z,75.08
2022-10-01T19:56:45.707Z,75.10
2022-10-01T19:59:15.869Z,75.06
2022-10-01T20:01:52.155Z,75.22
2022-10-01T20:04:30.770Z,75.35
2022-10-01T20:07:04.984Z,75.28
2022-10-01T20:09:44.577Z,75.46
2022-10-01T20:12:26.996Z,75.64
2022-10-01T20:15:03.492Z,75.49
2022-10-01T20:17:40.263Z,75.03
2022-10-01T20:20:16.251Z,75.63
2022-10-01T20:22:56.306Z,75.64
2022-10-01T20:25:31.159Z,75.31
2022-10-01T20:28:08.310Z,75.63
2022-10-01T20:30:44.410Z,74.51
2022-10-01T20:33:21.272Z,75.13
2022-10-01T20:35:59.628Z,75.30
2022-10-01T20:38:32.836Z,75.62
2022-10-01T20:41:05.789Z,75.05
2022-10-01T20:43:37.065Z,75.31
2022-10-01T20:46:11.601Z,75.08
2022-10-01T20:48:43.922Z,75.09
2022-10-01T20:51:16.201Z,74.75
2022-10-01T20:53:50.706Z,74.68
2022-10-01T20:56:23.257Z,74.71
2022-10-01T20:58:56.090Z,74.41
2022-10-01T21:01:27.246Z,74.98
2022-10-01T21:04:01.338Z,75.71
2022-10-01T21:06:34.885Z,76.08
2022-10-01T21:09:09.961Z,76.06
2022-10-01T21:11:43.361Z,75.89
2022-10-01T21:14:16.556Z,76.40
2022-10-01T21:17:04.906Z,76.19
2022-10-01T21:19:46.060Z,75.87
2022-10-01T21:22:26.624Z,75.93
2022-10-01T21:25:02.143Z,75.88
2022-10-01T21:27:48.010Z,75.98
2022-10-01T21:30:17.241Z,76.08
2022-10-01T21:33:10.595Z,75.44
2022-10-01T21:35:48.739Z,75.90
2022-10-01T21:38:30.567Z,75.42
2022-10-01T21:41:28.770Z,74.92
2022-10-01T21:44:18.793Z,75.33
2022-10-01T21:46:54.364Z,75.32
2022-10-01T21:49:31.859Z,75.16
2022-10-01T21:52:10.474Z,75.63
2022-10-01T21:55:05.899Z,75.44
2022-10-01T21:57:47.185Z,75.85
2022-10-01T22:00:18.122Z,75.72
2022-10-01T22:02:57.214Z,75.91
2022-10-01T22:05:35.060Z,76.46
2022-10-01T22:08:17.840Z,76.13
2022-10-01T22:10:48.578Z,76.55
2022-10-01T22:13:19.813Z,76.64
2022-10-01T22:15:51.352Z,76.60
2022-10-01T22:18:28.236Z,76.29
2022-10-01T22:20:59.298Z,76.11
2022-10-01T22:23:32.117Z,75.95
2022-10-01T22:26:03.570Z,76.90
2022-10-01T22:28:36.442Z,76.72
2022-10-01T22:31:09.104Z,76.52
2022-10-01T22:33:41.948Z,76.75
2022-10-01T22:36:15.815Z,76.33
2022-10-01T22:38:49.550Z,76.60
2022-10-01T22:41:27.373Z,76.49
2022-10-01T22:43:55.001Z,76.36
2022-10-01T22:46:50.234Z,76.23
2022-10-01T22:49:29.808Z,76.05
2022-10-01T22:52:09.743Z,75.97
2022-10-01T22:54:53.481Z,76.37
2022-10-01T22:57:35.423Z,76.11
2022-10-01T23:00:05.834Z,76.44
2022-10-01T23:02:38.953Z,76.51
2022-10-01T23:05:15.767Z,75.48
2022-10-01T23:07:56.570Z,76.19
2022-10-01T23:10:32.521Z,76.80
2022-10-01T23:13:12.291Z,76.30
2022-10-01T23:15:45.657Z,76.26
2022-10-01T23:18:24.868Z,76.54
2022-10-01T23:21:16.618Z,76.88
2022-10-01T23:23:55.617Z,76.61
2022-10-01T23:26:35.035Z,76.68
2022-10-01T23:29:17.889Z,76.63
2022-10-01T23:31:54.125Z,76.79
2022-10-01T23:34:29.646Z,77.46
2022-10-01T23:37:12.625Z,77.38
2022-10-01T23:39:48.033Z,76.90
2022-10-01T23:42:27.601Z,76.85
2022-10-01T23:45:04.977Z,76.27
2022-10-01T23:47:40.027Z,76.51
2022-10-01T23:50:17.296Z,76.63
2022-10-01T23:52:51.507Z,76.61
2022-10-01T23:55:26.161Z,76.92
2022-10-01T23:58:03.150Z,76.64
